Atwater, Ohio
Current Conditions -  °F | °C
As of 2:51 PM on Sunday 21 Dec 2014 (Local Time) from KCAK Reporting Station
Haze Haze  
Wind Chill: -1°   Ceiling: 2000
Heat Index: -1°   Visibility: 6mi
Dew Point: -6°   Wind: 3mph
Humidity: 67%   Direction: 120°ESE
Pressure: 30.22"   Gusts: NA
Location:  41.02°N, 81.16°W
Report Text: KCAK 211951Z 12003KT 6SM HZ OVC020 M01/M06 A3022 RMK AO2 SLP250 T10061061
Loading
Personal Weather Stations






























Interactive Weather Map New forecast layout! Learn more

10-Day Weather Forecast

Advertisements
Track Severe Weather on mobile